Webcam 1 more information Webcam 1


Webcam 2 more information Webcam 2


altri nostri siti meteo:

Pomeziameteo 1Sito sul meteo

Pomeziameteo DashboardSito sul meteo

Caput FrigorisSito sul meteo

BarcellonameteoSito sul meteo

MeteoipassiSito sul meteo

MeteotortoretoSito sul meteo

MeteospinacetoSito sul meteo

MeteoardeaSito sul meteo

MeteopalestrinaSito sul meteo

MeteocastelliSito sul meteo

MeteoGonzagaSito sul meteo

MeteoiserniaSito sul meteo

MeteolatinaSito sul meteo

RomaeurmeteoSito sul meteo

MeteomarconiaSito sul meteo

Stazione LineameteoSito sul meteo



Nessuna attenzione particolare richiesta.    Non ci sono allerte meteo

Notice: Undefined offset: 6 in /web/htdocs/www.castelnuovovomanometeo.it/home/weather28/metar/metarDisplay.php on line 76

Notice: Undefined offset: 5 in /web/htdocs/www.castelnuovovomanometeo.it/home/weather28/metar/metarDisplay.php on line 76

Report METAR

   
LIBP - Pescara
Dati ricevuti: 18-10-2017 02:50
Sereno  
Sereno  
   Vento: S 7.4 km/h
Vento: S 7.4 km/h
Temperatura: 10°C
Temperatura Vento: 9°C
P.to Rugiada: 9°C
Umidità: 94%
Barometro: 1022 hPa
Nuvole: Sereno
Visibilità: 7 km
dettagli cloud: Sereno
LIBP 180050Z AUTO 21004KT 7000 NCD 10/09 Q1022
LIRZ - Perugia
Dati ricevuti: 17-10-2017 22:50
DATI Obsoleti
Sereno  
Sereno  
   Vento: NNW 7.4 km/h
Vento: NNW 7.4 km/h
Temperatura: 13°C
P.to Rugiada: 4°C
Umidità: 55%
Barometro: 1023 hPa
Visibilità: oltre 10 km
dettagli cloud: Sereno
LIRZ 172050Z 34004KT CAVOK 13/04 Q1023
LIQN - Rieti
Dati ricevuti: 17-10-2017 19:50
DATI Obsoleti
Sereno  
Sereno  
   Vento: S 7.4 km/h
Vento: S 7.4 km/h
Temperatura: 15°C
P.to Rugiada: 11°C
Umidità: 77%
Barometro: 1023 hPa
Visibilità: oltre 10 km
dettagli cloud: Sereno
LIQN 171750Z 15004KT CAVOK 15/11 Q1023
LIPY - Falconara
Dati ricevuti: 18-10-2017 02:50
Nebbia, Parzialmente nuvoloso  
Nebbia, Parzialmente nuvoloso  
   Vento: SW 5.6 km/h
Vento: SW 5.6 km/h
Temperatura: 10°C
Temperatura Vento: 9°C
P.to Rugiada: 9°C
Umidità: 94%
Barometro: 1021 hPa
Nuvole: Parzialmente nuvoloso
Visibilità: 3 km
dettagli cloud: Parzialmente nuvoloso
LIPY 180050Z 22003KT 160V240 3000 BR NSC 10/09 Q1021
  

Script sviluppato da  Saratoga-weather.org Adattato per il modello da  Weerstation Leuven

Potete trovare le nostre info meteo anche a:

Weather Underground

AWEKAS

Citizen Weather Observer Program (CWOP)

HAMweather, WeatherForYou, PWS Weather

Strumentazione usata:

Stazione meteo
Oregon 928

Programma gestore dati meteo
WVIEW

Server per i dati meteo
Pc-WDS5

Oregon 928

WVIEW

Pc-WDS5